Time;durP1;ratioP1;P1;durP2;ratioP2;P2;SDS_P1;SDS_P2;PMS_P1;PMS_P2;Temp;Humidity;BMP_temperature;BMP_pressure;BME280_temperature;BME280_humidity;BME280_pressure;Samples;Min_cycle;Max_cycle;Signal;HPM_P1;HPM_P2
2021/10/18 00:00:20;;;;;;;8.50;6.77;;;;;;;7.39;100.00;101469.41;5010547;28;20212;-73
2021/10/18 00:02:46;;;;;;;14.73;6.97;;;;;;;7.37;100.00;101469.41;5024944;28;20200;-73
2021/10/18 00:05:15;;;;;;;11.53;6.43;;;;;;;7.38;100.00;101471.13;5018318;28;20227;-73
2021/10/18 00:07:42;;;;;;;9.37;6.50;;;;;;;7.37;100.00;101466.81;5014415;28;20687;-73
2021/10/18 00:10:14;;;;;;;11.07;7.03;;;;;;;7.34;100.00;101466.78;5012890;28;20303;-73
2021/10/18 00:12:42;;;;;;;12.07;7.27;;;;;;;7.34;100.00;101476.31;5012328;28;20216;-73
2021/10/18 00:15:10;;;;;;;10.40;6.67;;;;;;;7.34;100.00;101479.78;5018091;28;20228;-73
2021/10/18 00:17:37;;;;;;;9.63;6.30;;;;;;;7.35;100.00;101475.44;5004534;28;20221;-73
2021/10/18 00:20:05;;;;;;;7.77;6.57;;;;;;;7.31;100.00;101474.56;5011220;28;20692;-73
2021/10/18 00:22:32;;;;;;;8.30;6.07;;;;;;;7.33;100.00;101474.56;5010512;28;20212;-73
2021/10/18 00:24:58;;;;;;;10.43;7.00;;;;;;;7.31;100.00;101466.78;5014150;28;20238;-73
2021/10/18 00:27:28;;;;;;;11.33;7.27;;;;;;;7.32;100.00;101472.88;5010311;28;20217;-73
2021/10/18 00:29:54;;;;;;;8.70;6.47;;;;;;;7.33;100.00;101475.44;5009001;28;20215;-73
2021/10/18 00:32:21;;;;;;;8.43;5.80;;;;;;;7.34;100.00;101479.78;5013244;28;20201;-73
2021/10/18 00:34:47;;;;;;;11.27;7.00;;;;;;;7.34;100.00;101482.38;5007098;28;20269;-73
2021/10/18 00:37:14;;;;;;;10.67;7.07;;;;;;;7.35;100.00;101481.50;5012353;28;20775;-73
2021/10/18 00:39:41;;;;;;;14.33;6.67;;;;;;;7.32;100.00;101476.31;5011092;28;20679;-73
2021/10/18 00:42:08;;;;;;;11.80;6.70;;;;;;;7.34;100.00;101477.19;5012752;28;20203;-73
2021/10/18 00:44:36;;;;;;;8.00;6.40;;;;;;;7.35;100.00;101471.13;5007011;28;20313;-73
2021/10/18 00:47:03;;;;;;;9.93;6.63;;;;;;;7.32;100.00;101478.06;5010683;28;20204;-73
2021/10/18 00:49:30;;;;;;;11.03;7.00;;;;;;;7.32;100.00;101478.91;5009280;28;20658;-73
2021/10/18 00:51:56;;;;;;;11.93;6.93;;;;;;;7.34;100.00;101484.09;5008707;28;20196;-73
2021/10/18 00:54:23;;;;;;;9.67;6.97;;;;;;;7.34;100.00;101482.38;5008880;28;20232;-73
2021/10/18 00:56:49;;;;;;;12.27;7.07;;;;;;;7.33;100.00;101483.22;5008282;28;20220;-73
2021/10/18 00:59:16;;;;;;;8.90;6.77;;;;;;;7.34;100.00;101482.38;5011357;28;20656;-73
2021/10/18 01:01:45;;;;;;;8.57;6.60;;;;;;;7.35;100.00;101478.91;5008230;28;20196;-73
2021/10/18 01:04:12;;;;;;;11.90;6.90;;;;;;;7.34;100.00;101487.56;5011106;28;20233;-73
2021/10/18 01:06:38;;;;;;;9.27;6.90;;;;;;;7.35;100.00;101484.09;5009569;28;20205;-73
2021/10/18 01:09:04;;;;;;;9.03;6.50;;;;;;;7.35;100.00;101478.91;5008285;28;20291;-73
2021/10/18 01:11:31;;;;;;;9.17;6.93;;;;;;;7.34;100.00;101472.00;5007381;28;20198;-73
2021/10/18 01:13:58;;;;;;;10.73;7.40;;;;;;;7.36;100.00;101472.84;5011354;28;20226;-73
2021/10/18 01:16:24;;;;;;;10.00;7.50;;;;;;;7.36;100.00;101472.84;5011614;28;20212;-73
2021/10/18 01:18:52;;;;;;;9.30;6.57;;;;;;;7.37;100.00;101472.00;5008840;28;20722;-73
2021/10/18 01:21:20;;;;;;;10.87;7.17;;;;;;;7.35;100.00;101467.66;5010496;28;20207;-73
2021/10/18 01:23:46;;;;;;;12.30;7.30;;;;;;;7.34;100.00;101478.91;5009517;28;20222;-73
2021/10/18 01:26:12;;;;;;;10.03;6.87;;;;;;;7.36;100.00;101474.59;5025248;28;20651;-73
2021/10/18 01:28:39;;;;;;;11.77;7.37;;;;;;;7.36;100.00;101467.66;5004540;28;20452;-73
2021/10/18 01:31:05;;;;;;;10.17;7.17;;;;;;;7.36;100.00;101479.78;5009796;28;20205;-73
2021/10/18 01:33:32;;;;;;;9.33;6.53;;;;;;;7.37;100.00;101481.53;5007911;28;20224;-73
2021/10/18 01:35:59;;;;;;;12.47;7.33;;;;;;;7.38;100.00;101480.63;5011839;28;20276;-73
2021/10/18 01:38:27;;;;;;;11.13;7.40;;;;;;;7.37;100.00;101484.13;5013046;28;20679;-73
2021/10/18 01:40:53;;;;;;;12.17;7.17;;;;;;;7.36;100.00;101480.63;5009293;28;20196;-72
2021/10/18 01:43:20;;;;;;;9.33;6.67;;;;;;;7.35;100.00;101480.63;5012133;28;20200;-72
2021/10/18 01:45:46;;;;;;;11.50;7.30;;;;;;;7.34;100.00;101477.19;5008753;28;20193;-73
2021/10/18 01:48:12;;;;;;;9.80;7.43;;;;;;;7.36;100.00;101477.19;5010080;28;20560;-73
2021/10/18 01:50:39;;;;;;;9.93;7.27;;;;;;;7.36;100.00;101480.63;5010198;28;20201;-73
2021/10/18 01:53:05;;;;;;;11.33;7.60;;;;;;;7.35;100.00;101481.50;5011057;28;20205;-73
2021/10/18 01:55:33;;;;;;;10.97;7.10;;;;;;;7.35;100.00;101480.63;5003039;28;20197;-72
2021/10/18 01:57:59;;;;;;;10.20;7.93;;;;;;;7.36;100.00;101480.63;5012240;28;20210;-72
2021/10/18 02:00:26;;;;;;;14.23;7.10;;;;;;;7.34;100.00;101486.69;5009401;28;20219;-72
2021/10/18 02:02:52;;;;;;;11.83;7.67;;;;;;;7.36;100.00;101479.78;5013522;28;20209;-72
2021/10/18 02:05:18;;;;;;;10.03;7.17;;;;;;;7.37;100.00;101486.72;5012134;28;20236;-72
2021/10/18 02:07:45;;;;;;;12.50;7.67;;;;;;;7.38;100.00;101480.63;5007721;28;20724;-72
2021/10/18 02:10:13;;;;;;;9.73;7.40;;;;;;;7.35;100.00;101478.91;5013181;28;20219;-72
2021/10/18 02:12:42;;;;;;;10.83;7.57;;;;;;;7.38;100.00;101478.03;5011613;28;20596;-72
2021/10/18 02:15:11;;;;;;;11.60;7.83;;;;;;;7.36;100.00;101475.44;5010174;28;20256;-72
2021/10/18 02:17:37;;;;;;;10.40;7.90;;;;;;;7.37;100.00;101477.19;5007684;28;20228;-72
2021/10/18 02:20:04;;;;;;;14.87;8.63;;;;;;;7.36;100.00;101477.19;5015654;28;20212;-72
2021/10/18 02:22:31;;;;;;;12.53;8.20;;;;;;;7.37;100.00;101472.00;5010457;28;20585;-72
2021/10/18 02:24:57;;;;;;;12.00;7.57;;;;;;;7.38;100.00;101475.44;5010630;28;20668;-73
2021/10/18 02:27:24;;;;;;;13.53;8.33;;;;;;;7.37;100.00;101477.19;5007948;28;20197;-72
2021/10/18 02:29:52;;;;;;;12.63;8.17;;;;;;;7.40;100.00;101471.13;5008077;28;20201;-72
2021/10/18 02:32:18;;;;;;;12.13;7.43;;;;;;;7.41;100.00;101466.81;5007400;28;20625;-72
2021/10/18 02:34:45;;;;;;;12.67;9.30;;;;;;;7.39;100.00;101474.59;5006585;28;20224;-72
2021/10/18 02:37:11;;;;;;;16.53;9.87;;;;;;;7.37;100.00;101486.72;5009309;28;20224;-72
2021/10/18 02:39:37;;;;;;;13.13;8.73;;;;;;;7.39;100.00;101482.38;5006303;28;20720;-72
2021/10/18 02:42:05;;;;;;;12.70;9.13;;;;;;;7.38;100.00;101486.69;5019336;28;20989;-72
2021/10/18 02:44:31;;;;;;;13.53;8.70;;;;;;;7.38;100.00;101480.63;5005943;28;20232;-72
2021/10/18 02:46:59;;;;;;;14.60;9.40;;;;;;;7.38;100.00;101478.91;4998848;28;20750;-72
2021/10/18 02:49:25;;;;;;;15.13;9.27;;;;;;;7.41;100.00;101469.41;5002596;28;20200;-72
2021/10/18 02:51:52;;;;;;;15.13;9.47;;;;;;;7.42;100.00;101471.13;5009760;28;20201;-72
2021/10/18 02:54:18;;;;;;;14.33;8.97;;;;;;;7.42;100.00;101473.72;5006377;28;20219;-72
2021/10/18 02:56:45;;;;;;;15.33;9.03;;;;;;;7.39;100.00;101470.25;5006768;28;20225;-72
2021/10/18 02:59:11;;;;;;;14.83;9.17;;;;;;;7.41;100.00;101472.00;5005862;28;20208;-72
2021/10/18 03:01:38;;;;;;;13.30;9.00;;;;;;;7.41;100.00;101477.19;5012761;23;20236;-72
2021/10/18 03:04:06;;;;;;;12.83;8.77;;;;;;;7.41;100.00;101478.06;5028272;23;20232;-71
2021/10/18 03:06:32;;;;;;;13.07;8.70;;;;;;;7.42;100.00;101484.09;5020819;28;20203;-72
2021/10/18 03:08:59;;;;;;;11.07;8.13;;;;;;;7.40;100.00;101486.69;5010809;28;20247;-71
2021/10/18 03:11:26;;;;;;;14.53;9.00;;;;;;;7.41;100.00;101479.78;5004538;28;20309;-71
2021/10/18 03:13:53;;;;;;;16.33;9.03;;;;;;;7.42;100.00;101484.09;5002688;28;20229;-71
2021/10/18 03:16:19;;;;;;;13.83;8.97;;;;;;;7.41;100.00;101488.44;5000642;23;20233;-72
2021/10/18 03:18:46;;;;;;;10.93;8.80;;;;;;;7.44;100.00;101492.75;5005823;28;20214;-72
2021/10/18 03:21:14;;;;;;;9.83;8.00;;;;;;;7.44;100.00;101491.03;5013036;28;20196;-73
2021/10/18 03:23:40;;;;;;;11.97;8.67;;;;;;;7.42;100.00;101497.06;4990979;28;20785;-72
2021/10/18 03:26:07;;;;;;;11.70;8.40;;;;;;;7.44;100.00;101503.13;4980630;28;20705;-73
2021/10/18 03:28:33;;;;;;;11.77;8.67;;;;;;;7.43;100.00;101499.66;4985925;28;20308;-72
2021/10/18 03:31:00;;;;;;;13.87;8.63;;;;;;;7.44;100.00;101508.31;4981744;28;20289;-72
2021/10/18 03:33:30;;;;;;;13.13;8.40;;;;;;;7.44;100.00;101501.41;4983731;28;20821;-72
2021/10/18 03:35:56;;;;;;;10.77;8.00;;;;;;;7.46;100.00;101501.38;4985129;28;20720;-73
2021/10/18 03:38:24;;;;;;;10.97;8.03;;;;;;;7.46;100.00;101498.78;4980949;28;20254;-72
2021/10/18 03:40:50;;;;;;;11.57;7.80;;;;;;;7.45;100.00;101492.75;4982669;28;20205;-73
2021/10/18 03:43:18;;;;;;;12.93;8.77;;;;;;;7.45;100.00;101495.34;4986108;28;20734;-72
2021/10/18 03:45:44;;;;;;;13.43;8.53;;;;;;;7.42;100.00;101492.72;4986597;28;20205;-73
2021/10/18 03:48:11;;;;;;;11.37;8.27;;;;;;;7.43;100.00;101491.03;4991079;28;20203;-73
2021/10/18 03:50:37;;;;;;;12.47;7.83;;;;;;;7.41;100.00;101493.63;4986593;28;20625;-73
2021/10/18 03:53:03;;;;;;;11.43;8.40;;;;;;;7.41;100.00;101493.63;4990923;28;20225;-71
2021/10/18 03:55:32;;;;;;;10.73;8.07;;;;;;;7.40;100.00;101489.28;4988647;28;20248;-72
2021/10/18 03:57:58;;;;;;;12.03;7.67;;;;;;;7.41;100.00;101493.63;4984576;28;20245;-73
2021/10/18 04:00:25;;;;;;;12.67;8.60;;;;;;;7.39;100.00;101498.81;4990975;28;20213;-72
2021/10/18 04:02:51;;;;;;;15.60;7.63;;;;;;;7.36;100.00;101496.19;4986362;28;20231;-72
2021/10/18 04:05:18;;;;;;;13.37;7.57;;;;;;;7.39;100.00;101497.94;4988880;28;20211;-73
2021/10/18 04:07:47;;;;;;;12.43;7.03;;;;;;;7.39;100.00;101500.53;4992314;28;20212;-74
2021/10/18 04:10:14;;;;;;;9.80;7.07;;;;;;;7.35;100.00;101497.06;4988163;28;20206;-73
2021/10/18 04:12:42;;;;;;;9.07;6.90;;;;;;;7.33;100.00;101506.56;4986792;28;20674;-72
2021/10/18 04:15:09;;;;;;;12.27;7.00;;;;;;;7.35;100.00;101510.06;4988497;28;20222;-72
2021/10/18 04:17:35;;;;;;;9.40;6.97;;;;;;;7.36;100.00;101514.34;4987885;28;20225;-73
2021/10/18 04:20:02;;;;;;;9.80;7.30;;;;;;;7.37;100.00;101510.06;4988851;28;20213;-73
2021/10/18 04:22:28;;;;;;;8.33;6.93;;;;;;;7.37;100.00;101521.28;4988224;28;20322;-72
2021/10/18 04:24:55;;;;;;;9.33;7.73;;;;;;;7.34;100.00;101518.69;4982789;28;20201;-72
2021/10/18 04:27:21;;;;;;;9.23;6.53;;;;;;;7.37;100.00;101523.03;4986463;28;20206;-73
2021/10/18 04:29:50;;;;;;;7.50;6.60;;;;;;;7.36;100.00;101524.72;4986077;28;20213;-73
2021/10/18 04:32:16;;;;;;;11.10;5.83;;;;;;;7.35;100.00;101525.63;4988078;28;20569;-72
2021/10/18 04:34:43;;;;;;;10.33;6.40;;;;;;;7.34;100.00;101530.81;4989349;28;20578;-72
2021/10/18 04:37:10;;;;;;;8.07;6.17;;;;;;;7.34;100.00;101525.59;4988117;28;20216;-73
2021/10/18 04:39:37;;;;;;;9.67;5.90;;;;;;;7.33;100.00;101529.06;4989814;28;20681;-73
2021/10/18 04:42:03;;;;;;;7.83;6.00;;;;;;;7.34;100.00;101536.84;4987214;28;20207;-73
2021/10/18 04:44:30;;;;;;;6.60;5.43;;;;;;;7.32;100.00;101537.72;4990721;28;20235;-73
2021/10/18 04:46:58;;;;;;;7.43;5.40;;;;;;;7.32;100.00;101537.72;4983224;28;20231;-72
2021/10/18 04:49:24;;;;;;;8.47;5.80;;;;;;;7.31;100.00;101533.38;4984156;28;20207;-73
2021/10/18 04:51:50;;;;;;;9.37;6.23;;;;;;;7.33;100.00;101534.25;4986321;28;20703;-72
2021/10/18 04:54:17;;;;;;;7.60;5.70;;;;;;;7.33;100.00;101544.63;4987408;28;20223;-72
2021/10/18 04:56:43;;;;;;;6.77;5.47;;;;;;;7.32;100.00;101537.72;4988761;28;20678;-72
2021/10/18 04:59:09;;;;;;;10.87;5.37;;;;;;;7.34;100.00;101548.97;4987458;28;20210;-72
2021/10/18 05:01:36;;;;;;;9.40;5.97;;;;;;;7.34;100.00;101543.78;4987804;28;20198;-73
2021/10/18 05:04:04;;;;;;;7.23;5.17;;;;;;;7.34;100.00;101554.16;4986123;28;20225;-73
2021/10/18 05:06:30;;;;;;;6.73;5.13;;;;;;;7.32;100.00;101566.25;4989824;28;20304;-73
2021/10/18 05:08:57;;;;;;;7.77;5.77;;;;;;;7.33;100.00;101561.03;4987024;28;20740;-73
2021/10/18 05:11:23;;;;;;;6.63;5.20;;;;;;;7.35;100.00;101555.88;4987825;28;20203;-73
2021/10/18 05:13:50;;;;;;;8.50;6.63;;;;;;;7.35;100.00;101559.34;4982455;28;20231;-73
2021/10/18 05:16:16;;;;;;;10.93;9.00;;;;;;;7.35;100.00;101555.88;4984821;28;20213;-73
2021/10/18 05:18:43;;;;;;;10.87;9.77;;;;;;;7.36;100.00;101562.78;4986446;28;20565;-73
2021/10/18 05:21:10;;;;;;;18.40;11.50;;;;;;;7.35;100.00;101569.72;4984430;28;20817;-73
2021/10/18 05:23:37;;;;;;;15.93;12.10;;;;;;;7.36;100.00;101558.47;4985529;28;20457;-73
2021/10/18 05:26:03;;;;;;;11.80;10.57;;;;;;;7.36;100.00;101560.19;4987573;28;20225;-73
2021/10/18 05:28:30;;;;;;;11.77;9.43;;;;;;;7.37;100.00;101564.53;4982051;28;20204;-73
2021/10/18 05:30:56;;;;;;;20.53;13.67;;;;;;;7.37;100.00;101559.34;4982090;28;20296;-72
2021/10/18 05:33:23;;;;;;;22.73;16.50;;;;;;;7.36;100.00;101565.38;4987014;28;20231;-72
2021/10/18 05:35:49;;;;;;;27.83;22.60;;;;;;;7.37;100.00;101567.13;4984888;28;20205;-72
2021/10/18 05:38:20;;;;;;;35.70;26.90;;;;;;;7.37;100.00;101567.13;4990535;28;20220;-72
2021/10/18 05:40:46;;;;;;;32.90;26.27;;;;;;;7.38;100.00;101568.84;4983493;28;20209;-73
2021/10/18 05:43:14;;;;;;;29.03;21.67;;;;;;;7.39;100.00;101565.41;4984480;28;20227;-73
2021/10/18 05:45:40;;;;;;;30.47;22.53;;;;;;;7.39;100.00;101571.44;4984646;28;20204;-73
2021/10/18 05:48:07;;;;;;;30.43;22.63;;;;;;;7.41;100.00;101579.25;4984620;28;20202;-73
2021/10/18 05:50:35;;;;;;;50.17;38.30;;;;;;;7.41;100.00;101580.97;4987062;28;20218;-73
2021/10/18 05:53:01;;;;;;;74.90;54.17;;;;;;;7.42;100.00;101590.47;4982692;28;20235;-73
2021/10/18 05:55:29;;;;;;;57.50;41.80;;;;;;;7.41;100.00;101581.84;4985587;28;20395;-73
2021/10/18 05:57:57;;;;;;;54.53;40.03;;;;;;;7.44;100.00;101578.38;4980892;28;20230;-73
2021/10/18 06:00:24;;;;;;;49.77;37.83;;;;;;;7.43;100.00;101568.88;4990041;28;20213;-73
2021/10/18 06:02:52;;;;;;;44.80;36.87;;;;;;;7.44;100.00;101573.19;4983856;28;20231;-73
2021/10/18 06:05:19;;;;;;;35.00;25.17;;;;;;;7.43;100.00;101584.44;4986577;28;20213;-73
2021/10/18 06:07:46;;;;;;;26.27;14.17;;;;;;;7.42;100.00;101593.94;4984352;28;20820;-73
2021/10/18 06:10:14;;;;;;;16.67;11.70;;;;;;;7.44;100.00;101593.94;4985939;28;20213;-73
2021/10/18 06:12:43;;;;;;;11.97;9.17;;;;;;;7.45;100.00;101593.09;4987834;28;20190;-73
2021/10/18 06:15:11;;;;;;;13.67;10.13;;;;;;;7.45;100.00;101588.75;4980094;28;20211;-72
2021/10/18 06:17:37;;;;;;;17.07;10.10;;;;;;;7.49;100.00;101593.09;4989124;28;20233;-72
2021/10/18 06:20:04;;;;;;;15.17;11.47;;;;;;;7.49;100.00;101598.28;4985131;28;20303;-73
2021/10/18 06:22:31;;;;;;;11.83;9.90;;;;;;;7.52;100.00;101597.41;4986695;28;20206;-73
2021/10/18 06:24:57;;;;;;;11.97;9.03;;;;;;;7.54;100.00;101600.88;4980695;28;20614;-72
2021/10/18 06:27:24;;;;;;;12.40;7.90;;;;;;;7.58;100.00;101603.50;4986269;28;20201;-73
2021/10/18 06:29:52;;;;;;;13.27;7.77;;;;;;;7.62;100.00;101601.78;4987116;28;20267;-73
2021/10/18 06:32:18;;;;;;;13.93;9.83;;;;;;;7.63;100.00;101611.28;4983846;28;20207;-72
2021/10/18 06:34:45;;;;;;;14.23;9.33;;;;;;;7.69;100.00;101610.44;5001265;28;20227;-73
2021/10/18 06:37:11;;;;;;;9.67;7.57;;;;;;;7.72;100.00;101605.22;4983988;28;20224;-73
2021/10/18 06:39:37;;;;;;;12.07;7.90;;;;;;;7.76;100.00;101613.03;4988232;28;20204;-73
2021/10/18 06:42:04;;;;;;;12.00;7.90;;;;;;;7.79;100.00;101614.75;4985301;28;20295;-72
2021/10/18 06:44:30;;;;;;;14.93;9.40;;;;;;;7.79;100.00;101609.56;5002210;28;20656;-73
2021/10/18 06:46:58;;;;;;;13.13;9.67;;;;;;;7.84;100.00;101623.41;4981860;28;20212;-72
2021/10/18 06:49:24;;;;;;;13.17;9.10;;;;;;;7.87;100.00;101623.44;4988044;28;20210;-72
2021/10/18 06:51:53;;;;;;;10.00;7.87;;;;;;;7.91;100.00;101630.34;4987968;28;20289;-73
2021/10/18 06:54:20;;;;;;;15.13;8.37;;;;;;;7.99;100.00;101632.13;4984558;28;20320;-72
2021/10/18 06:56:46;;;;;;;11.27;8.13;;;;;;;8.01;100.00;101641.63;4996593;28;20268;-73
2021/10/18 06:59:13;;;;;;;10.37;7.30;;;;;;;8.08;100.00;101643.34;4985001;28;20654;-72
2021/10/18 07:01:40;;;;;;;14.27;8.23;;;;;;;8.18;100.00;101633.84;4986201;28;20721;-73
2021/10/18 07:04:09;;;;;;;10.83;7.60;;;;;;;8.23;100.00;101641.63;4984333;28;20610;-73
2021/10/18 07:06:35;;;;;;;10.10;7.63;;;;;;;8.26;100.00;101645.09;4985319;28;20201;-72
2021/10/18 07:09:03;;;;;;;8.87;7.13;;;;;;;8.31;100.00;101655.50;4982533;28;20674;-73
2021/10/18 07:11:29;;;;;;;10.83;7.33;;;;;;;8.33;100.00;101653.75;4988495;28;20215;-72
2021/10/18 07:13:56;;;;;;;10.77;7.07;;;;;;;8.38;100.00;101654.63;4984357;28;20227;-72
2021/10/18 07:16:23;;;;;;;8.70;7.40;;;;;;;8.40;100.00;101652.03;4988374;28;20692;-72
2021/10/18 07:18:49;;;;;;;11.67;9.03;;;;;;;8.45;100.00;101658.97;4984493;28;20510;-73
2021/10/18 07:21:17;;;;;;;15.50;9.93;;;;;;;8.49;100.00;101659.84;4984961;28;20650;-73
2021/10/18 07:23:45;;;;;;;11.43;7.77;;;;;;;8.50;100.00;101670.22;4988111;28;20224;-73
2021/10/18 07:26:12;;;;;;;11.60;7.10;;;;;;;8.53;100.00;101667.63;4980500;28;20221;-73
2021/10/18 07:28:38;;;;;;;14.33;7.67;;;;;;;8.55;100.00;101665.03;4988289;28;20585;-73
2021/10/18 07:31:05;;;;;;;9.07;6.63;;;;;;;8.62;100.00;101669.38;4984239;28;20208;-72
2021/10/18 07:33:31;;;;;;;11.83;7.07;;;;;;;8.67;100.00;101670.22;4982207;28;20227;-73
2021/10/18 07:36:06;;;;;;;11.17;7.47;;;;;;;8.73;100.00;101665.88;4983870;28;20213;-73
2021/10/18 07:38:35;;;;;;;8.70;6.70;;;;;;;8.83;100.00;101665.84;4984714;28;20229;-73
2021/10/18 07:41:01;;;;;;;11.53;7.17;;;;;;;8.93;100.00;101673.63;4982402;28;20218;-72
2021/10/18 07:43:28;;;;;;;9.53;6.60;;;;;;;8.97;100.00;101670.13;4985370;28;20244;-73
2021/10/18 07:45:54;;;;;;;14.07;7.10;;;;;;;9.05;100.00;101669.25;4985805;28;20569;-73
2021/10/18 07:48:21;;;;;;;9.00;6.80;;;;;;;9.10;100.00;101671.84;4984603;28;20221;-73
2021/10/18 07:50:47;;;;;;;12.40;6.80;;;;;;;9.13;100.00;101665.75;4985355;28;20193;-73
2021/10/18 07:53:13;;;;;;;7.07;6.07;;;;;;;9.15;100.00;101675.31;4978857;28;20218;-73
2021/10/18 07:55:41;;;;;;;11.40;6.07;;;;;;;9.22;100.00;101677.00;4988333;28;20199;-73
2021/10/18 07:58:08;;;;;;;8.23;5.80;;;;;;;9.31;100.00;101672.66;4986398;28;20232;-73
2021/10/18 08:00:34;;;;;;;9.63;6.03;;;;;;;9.34;100.00;101676.09;4986070;28;20209;-72
2021/10/18 08:03:00;;;;;;;8.43;6.57;;;;;;;9.41;100.00;101672.59;4989611;28;20225;-73
2021/10/18 08:05:27;;;;;;;8.10;5.20;;;;;;;9.48;100.00;101674.28;4986116;28;20206;-73
2021/10/18 08:07:55;;;;;;;11.53;6.50;;;;;;;9.45;100.00;101674.31;4987485;28;20381;-73
2021/10/18 08:10:24;;;;;;;10.27;5.53;;;;;;;9.47;100.00;101679.50;4990831;28;20324;-73
2021/10/18 08:12:52;;;;;;;9.67;5.53;;;;;;;9.52;100.00;101680.34;4991198;28;20227;-73
2021/10/18 08:15:19;;;;;;;8.13;5.03;;;;;;;9.54;100.00;101683.81;4987519;28;20297;-73
2021/10/18 08:17:45;;;;;;;8.40;5.73;;;;;;;9.56;100.00;101691.63;4990026;28;20248;-72
2021/10/18 08:20:12;;;;;;;7.63;5.40;;;;;;;9.58;100.00;101680.31;4986877;28;20220;-73
2021/10/18 08:22:38;;;;;;;6.03;5.23;;;;;;;9.58;100.00;101684.66;4987985;28;20692;-73
2021/10/18 08:25:07;;;;;;;8.40;4.87;;;;;;;9.55;100.00;101688.16;4989840;28;20214;-73
2021/10/18 08:27:34;;;;;;;9.53;5.00;;;;;;;9.52;100.00;101693.38;4987341;28;20202;-73
2021/10/18 08:30:01;;;;;;;9.10;5.97;;;;;;;9.50;100.00;101695.13;4984758;28;20730;-73
2021/10/18 08:32:28;;;;;;;8.50;5.47;;;;;;;9.52;100.00;101700.31;4987109;28;20211;-73
2021/10/18 08:34:54;;;;;;;9.30;5.33;;;;;;;9.52;100.00;101701.19;4989290;28;20193;-73
2021/10/18 08:37:20;;;;;;;8.03;4.80;;;;;;;9.53;100.00;101699.44;4982904;28;20209;-72
2021/10/18 08:40:05;;;;;;;8.93;5.43;;;;;;;9.56;100.00;101697.69;4989780;28;20321;-73
2021/10/18 08:42:41;;;;;;;5.97;5.30;;;;;;;9.54;100.00;101701.19;4985767;28;20213;-72
2021/10/18 08:45:09;;;;;;;8.13;4.80;;;;;;;9.52;100.00;101701.19;4985629;28;20298;-73
2021/10/18 08:47:36;;;;;;;7.07;6.00;;;;;;;9.51;100.00;101709.84;4988164;28;20205;-73
2021/10/18 08:50:03;;;;;;;9.60;6.43;;;;;;;9.45;100.00;101702.94;4988949;28;20225;-72
2021/10/18 08:52:30;;;;;;;13.03;7.10;;;;;;;9.40;100.00;101709.91;4985340;28;20212;-73
2021/10/18 08:54:56;;;;;;;9.90;6.30;;;;;;;9.40;100.00;101696.88;4984927;28;20217;-73
2021/10/18 08:57:23;;;;;;;8.67;5.03;;;;;;;9.38;100.00;101700.38;4985940;28;20205;-72
2021/10/18 08:59:49;;;;;;;7.00;4.87;;;;;;;9.39;100.00;101695.16;4984306;28;20225;-72
2021/10/18 09:02:19;;;;;;;7.27;4.90;;;;;;;9.49;100.00;101701.19;4987941;28;20308;-73
2021/10/18 09:04:46;;;;;;;7.07;4.37;;;;;;;9.64;100.00;101702.88;4988106;28;20252;-72
2021/10/18 09:07:17;;;;;;;7.13;4.60;;;;;;;9.77;100.00;101703.66;4987106;28;20732;-73
2021/10/18 09:09:48;;;;;;;8.80;4.70;;;;;;;9.84;100.00;101702.75;4983502;28;20204;-73
2021/10/18 09:12:25;;;;;;;5.17;4.30;;;;;;;9.95;100.00;101700.06;4984929;28;20205;-73
2021/10/18 09:14:52;;;;;;;7.33;4.73;;;;;;;10.05;100.00;101701.75;4986681;28;20216;-72
2021/10/18 09:17:32;;;;;;;6.60;4.33;;;;;;;10.14;100.00;101703.44;4986090;28;20217;-73
2021/10/18 09:20:26;;;;;;;4.97;4.30;;;;;;;10.24;100.00;101707.69;4988136;28;20640;-73
2021/10/18 09:22:54;;;;;;;5.97;4.00;;;;;;;10.36;100.00;101707.63;4988556;28;20316;-73
2021/10/18 09:25:35;;;;;;;6.87;4.20;;;;;;;10.41;100.00;101710.19;4986393;28;20208;-73
2021/10/18 09:28:08;;;;;;;8.53;4.30;;;;;;;10.51;100.00;101714.44;4987827;28;20637;-73
2021/10/18 09:30:39;;;;;;;7.17;3.80;;;;;;;10.65;98.33;101718.69;4984516;28;20202;-73
2021/10/18 09:33:16;;;;;;;5.53;4.33;;;;;;;10.68;93.38;101724.75;5004281;28;20272;-72
2021/10/18 09:35:42;;;;;;;4.30;3.67;;;;;;;10.82;92.32;101726.34;4981693;28;20197;-73
2021/10/18 09:38:10;;;;;;;5.17;4.10;;;;;;;10.91;92.05;101724.53;4988783;28;20205;-73
2021/10/18 09:40:39;;;;;;;5.60;4.13;;;;;;;10.99;91.10;101732.25;4983619;28;20214;-72
2021/10/18 09:43:12;;;;;;;5.30;3.63;;;;;;;11.07;90.63;101727.84;4981775;28;20227;-73
2021/10/18 09:45:54;;;;;;;5.27;4.00;;;;;;;11.09;88.14;101733.91;4987339;28;20212;-73
2021/10/18 10:53:21;;;;;;;3.23;1.90;;;;;;;12.73;75.95;101729.91;4982961;28;20311;-73
2021/10/18 10:55:49;;;;;;;2.30;1.90;;;;;;;12.75;75.71;101736.00;4985532;28;20207;-73
2021/10/18 10:58:48;;;;;;;3.07;2.40;;;;;;;12.87;75.07;101737.50;4985868;28;20669;-74
2021/10/18 11:01:42;;;;;;;3.67;2.30;;;;;;;13.00;75.56;101740.78;4986498;28;20212;-73
2021/10/18 11:04:42;;;;;;;2.93;2.13;;;;;;;13.10;75.29;101734.47;4981608;28;20957;-73
2021/10/18 11:07:11;;;;;;;4.80;1.90;;;;;;;13.10;72.79;101741.47;4985052;28;20677;-73
2021/10/18 11:09:41;;;;;;;4.13;2.43;;;;;;;13.13;74.11;101734.41;4985972;28;20209;-72
2021/10/18 11:12:10;;;;;;;5.33;1.80;;;;;;;13.18;72.39;101737.81;4985441;28;21117;-73
2021/10/18 11:14:36;;;;;;;2.73;1.93;;;;;;;13.30;73.55;101727.97;4989064;28;20554;-73
2021/10/18 11:17:03;;;;;;;3.27;2.27;;;;;;;13.36;74.45;101728.75;4983058;28;20208;-72
2021/10/18 11:19:30;;;;;;;2.43;2.03;;;;;;;13.47;73.32;101722.44;4985029;28;20231;-73
2021/10/18 11:21:58;;;;;;;6.33;2.00;;;;;;;13.51;71.56;101730.22;4996144;28;20748;-72
2021/10/18 11:24:24;;;;;;;2.03;1.83;;;;;;;13.53;70.91;101728.41;4986059;28;20239;-73
2021/10/18 11:26:55;;;;;;;2.67;2.10;;;;;;;13.55;71.06;101733.63;4984414;28;20543;-73
2021/10/18 11:29:30;;;;;;;4.60;1.90;;;;;;;13.62;73.43;101724.72;4987546;28;20209;-72
2021/10/18 11:32:06;;;;;;;2.47;1.97;;;;;;;13.58;70.42;101726.56;4986750;28;20625;-73
2021/10/18 11:34:32;;;;;;;4.90;2.00;;;;;;;13.63;71.45;101727.31;4986658;28;20221;-73
2021/10/18 11:36:58;;;;;;;2.87;1.80;;;;;;;13.58;71.10;101720.47;4987392;28;20673;-73
2021/10/18 11:39:27;;;;;;;3.60;1.90;;;;;;;13.61;71.32;101715.13;4982454;28;20274;-72
2021/10/18 11:42:06;;;;;;;3.33;1.73;;;;;;;13.68;70.17;101721.97;4987426;28;20232;-73
2021/10/18 11:44:54;;;;;;;5.00;1.70;;;;;;;13.73;68.89;101721.88;4986081;28;20225;-72
2021/10/18 11:47:33;;;;;;;5.07;2.33;;;;;;;13.79;68.59;101713.88;4980063;28;20213;-72
2021/10/18 11:50:11;;;;;;;4.43;2.60;;;;;;;13.85;68.79;101715.50;4986585;28;20219;-73
2021/10/18 11:52:42;;;;;;;4.67;3.00;;;;;;;13.88;69.06;101712.78;4987046;28;20599;-73
2021/10/18 11:55:10;;;;;;;4.83;2.70;;;;;;;13.87;69.22;101703.22;4986248;28;20256;-73
2021/10/18 11:57:44;;;;;;;3.90;2.10;;;;;;;13.93;69.15;101703.97;4987618;28;20224;-72
2021/10/18 12:00:13;;;;;;;3.57;1.97;;;;;;;13.89;69.00;101697.03;4986831;28;20224;-73
2021/10/18 12:02:42;;;;;;;3.73;1.90;;;;;;;13.92;67.96;101704.84;4999314;28;20212;-74
2021/10/18 12:05:09;;;;;;;3.37;1.57;;;;;;;13.95;65.12;101711.78;4985866;28;20210;-72
2021/10/18 12:07:40;;;;;;;4.93;3.33;;;;;;;14.04;67.17;101702.84;4988867;28;20209;-72
2021/10/18 12:10:21;;;;;;;2.83;1.60;;;;;;;13.99;66.39;101705.56;4984122;28;20285;-73
2021/10/18 12:13:11;;;;;;;3.57;2.17;;;;;;;14.12;64.56;101706.13;4990270;28;20645;-74
2021/10/18 12:15:44;;;;;;;4.77;2.23;;;;;;;14.24;64.22;101708.47;4985887;28;20406;-73
2021/10/18 12:18:11;;;;;;;4.10;1.73;;;;;;;14.25;62.61;101709.31;4989979;28;20225;-73
2021/10/18 12:20:41;;;;;;;2.10;1.70;;;;;;;14.25;60.96;101715.44;4985932;28;20214;-74
2021/10/18 12:23:09;;;;;;;3.83;1.80;;;;;;;14.20;62.51;101701.56;4983408;28;20228;-73
2021/10/18 12:25:38;;;;;;;3.10;2.10;;;;;;;14.20;63.38;101697.19;4988074;28;20406;-73
2021/10/18 12:28:37;;;;;;;3.87;1.80;;;;;;;14.18;62.93;101695.50;4987601;28;20232;-72